EGNV Airport Information

Runway Information
Runway 05 Length 7516 ft width 151 ft
Elevation 115 ft Threshold 0 ft Heading 48
Runway 23 Length 7516 ft Width 151 ft
Elevation 116 ft Threshold 0 ft Heading 228
Airport Frequencies
Type ATIS Name ATIS Frequency 132.375 MHZ
Type RADAR Name Durham Rad Frequency 118.85 MHZ
Type TWR Name Durham Tow Frequency 119.8 MHZ
Airport Navaids
Airport Weather Information & NOTAM
ADDS - METARS form results

(0801 UTC 23 October 2021)
Data provider http://aviationweather.gov/metar/data/
 
METAR text: EGNV 230750Z 17007KT 9999 BKN048 09/07 Q1021
Conditions at: EGNV (TEES-SIDE , GB) observed 0750 UTC 23 October 2021
Temperature: 9.0°C (48°F)
Dewpoint: 7.0°C (45°F) [RH = 87%]
Pressure (altimeter): 30.15 inches Hg (1021.0 mb)
Winds: from the S (170 degrees) at 8 MPH (7 knots; 3.6 m/s)
Visibility: 6 or more miles (10+ km)
Ceiling: 4800 feet AGL
Clouds: broken clouds at 4800 feet AGL
Weather: no significant weather observed at this time

METAR text: EGNV 230720Z 18009KT 9999 BKN046 09/07 Q1021
Conditions at: EGNV (TEES-SIDE , GB) observed 0720 UTC 23 October 2021
Temperature: 9.0°C (48°F)
Dewpoint: 7.0°C (45°F) [RH = 87%]
Pressure (altimeter): 30.15 inches Hg (1021.0 mb)
Winds: from the S (180 degrees) at 10 MPH (9 knots; 4.6 m/s)
Visibility: 6 or more miles (10+ km)
Ceiling: 4600 feet AGL
Clouds: broken clouds at 4600 feet AGL
Weather: no significant weather observed at this time

Forecast for: AMD
Text: TAF AMD EGNV 230658Z 2306/2315 19008KT 9999 SCT045
Forecast period: 0600 to 1500 UTC 23 October 2021
Forecast type: FROM: standard forecast or significant change
Winds: from the S (190 degrees) at 9 MPH (8 knots; 4.1 m/s)
Visibility: 6 or more miles (10+ km)
Ceiling: at least 12,000 feet AGL
Clouds: scattered clouds at 4500 feet AGL
Weather: no significant weather forecast for this period
Text: PROB40
Forecast period: 0600 to 0900 UTC 23 October 2021
Forecast type: TEMPORARY: The following changes expected for less than half the time period
Visibility: 6 miles (9 km)
Ceiling: unknown
Clouds: missing
Weather: no significant weather forecast for this period